Latest Coastal Weather Observations for Williamtown

IDN60701

Issued at 9:35 am EST Friday 1 August 2014 (issued every 10 minutes, with the page automatically refreshed every 10 minutes)

About coastal observations | Map of coastal stations | Coastal observations for NSW | Marine services | Other Formats
Station Details ID: 061078 Name: WILLIAMTOWN RAAF Lat: -32.79 Lon: 151.84 Height: 9.0 m
Data from the previous 72 hours. | See also: Recent months at Williamtown
Date/Time
EST
Temp

°C
Wind Pressure Rain
since 9am
mm
Weather Cloud Vis
km
Sea
Height
m
Swell
Dir
 
Speed
knots
Gust
knots
hPa Trend Height
m
Period
s
Dir
01/09:30am 18.8 WNW 9 11 1008.1 - 0.0 - - 10 - - - -
01/09:00am 17.3 NW 11 15 1008.2 - 0.0 - - 10 - - - -
01/08:30am 15.5 NW 8 10 1008.2 - 0.0 - - 10 - - - -
01/07:56am 10.5 W 7 8 1008.4 - 0.0 - - 10 - - - -
01/07:30am 5.4 CALM 0 0 1007.3 - 0.0 - - 10 - - - -
01/07:00am 3.7 CALM 0 0 1007.3 - 0.0 - - 10 - - - -
01/06:30am 3.5 CALM 0 0 1007.1 - 0.0 - - 10 - - - -
01/06:00am 4.1 CALM 0 0 1007.0 - 0.0 - - 10 - - - -
01/05:30am 3.4 CALM 0 0 1006.9 - 0.0 - - 10 - - - -
01/05:00am 3.9 NW 1 7 1007.2 - 0.0 - - 10 - - - -
01/04:30am 4.8 CALM 0 0 1007.2 - 0.0 - - 10 - - - -
01/04:00am 4.7 NE 1 5 1007.4 - 0.0 - - 10 - - - -
01/03:30am 5.5 CALM 0 0 1007.9 - 0.0 - - 10 - - - -
01/03:00am 5.6 CALM 0 0 1008.2 - 0.0 - - 10 - - - -
01/02:30am 6.0 WSW 1 5 1008.1 - 0.0 - - 10 - - - -
01/02:00am 6.1 CALM 0 0 1008.0 - 0.0 - - 10 - - - -
01/01:30am 6.5 CALM 0 0 1008.2 - 0.0 - - 10 - - - -
01/01:22am 7.1 CALM 0 0 1008.2 - 0.0 - - 10 - - - -
01/01:00am 12.2 N 7 9 1008.3 - 0.0 - - 10 - - - -
01/12:30am 10.2 NNE 5 7 1008.6 - 0.0 - - 10 - - - -
01/12:00am 9.4 ENE 1 6 1009.0 - 0.0 - - 10 - - - -
 
Date/Time
EST
Temp

°C
Wind Pressure Rain
since 9am
mm
Weather Cloud Vis
km
Sea
Height
m
Swell
Dir
 
Speed
knots
Gust
knots
hPa Trend Height
m
Period
s
Dir
31/11:30pm 13.0 NNE 7 8 1009.1 - 0.0 - - 10 - - - -
31/11:00pm 13.2 NNE 7 9 1009.3 - 0.0 - - 10 - - - -
31/10:30pm 11.0 NNE 7 8 1009.7 - 0.0 - - 10 - - - -
31/10:00pm 12.2 N 5 7 1009.9 - 0.0 - - 10 - - - -
31/09:30pm 10.1 N 5 6 1010.0 - 0.0 - - 10 - - - -
31/09:00pm 11.7 N 5 5 1010.1 - 0.0 - - 10 - - - -
31/08:30pm 15.7 N 4 5 1009.9 - 0.0 - - 10 - - - -
31/08:00pm 17.9 N 9 12 1009.8 - 0.0 - - 10 - - - -
31/07:30pm 17.2 N 7 9 1010.0 - 0.0 - - 10 - - - -
31/07:00pm 18.0 N 9 10 1010.2 - 0.0 - - 10 - - - -
31/06:30pm 18.5 NNW 9 12 1010.3 - 0.0 - - 10 - - - -
31/06:00pm 18.6 NNW 9 11 1010.3 - 0.0 - - 10 - - - -
31/05:30pm 18.5 NNW 8 10 1010.0 - 0.0 - - 10 - - - -
31/05:00pm 21.1 NW 9 13 1010.0 - 0.0 - - 10 - - - -
31/04:30pm 22.3 NW 10 15 1010.0 - 0.0 - - 10 - - - -
31/04:00pm 23.5 NW 13 22 1010.3 - 0.0 - - 10 - - - -
31/03:30pm 23.9 NW 17 23 1010.5 - 0.0 - - 10 - - - -
31/03:00pm 24.3 NNW 16 23 1010.7 F 0.0 Fine Clear 40 - - - -
31/02:30pm 24.3 NW 14 21 1011.0 - 0.0 - - 10 - - - -
31/02:20pm 24.3 NW 15 25 1011.1 - 0.0 - - 10 - - - -
31/02:00pm 24.4 NW 20 29 1011.3 - 0.0 - - 10 - - - -
31/01:45pm 24.5 NW 17 27 1011.4 - 0.0 - - 10 - - - -
31/01:30pm 24.3 NW 18 26 1011.6 - 0.0 - - 10 - - - -
31/01:00pm 24.2 NW 18 25 1012.3 - 0.0 - - 10 - - - -
31/12:54pm 24.2 NNW 19 25 1012.5 - 0.0 - - 10 - - - -
31/12:38pm 24.3 WNW 21 32 1012.8 - 0.0 - - 10 - - - -
31/12:30pm 24.2 NW 21 30 1013.0 - 0.0 - - 10 - - - -
31/12:22pm 24.1 NW 17 27 1013.2 - 0.0 - - 10 - - - -
31/12:19pm 24.0 NW 15 24 1013.3 - 0.0 - - 10 - - - -
31/12:00pm 23.2 WNW 10 14 1013.8 F 0.0 Fine Clear 40 - - - -
31/11:30am 21.7 WNW 7 8 1014.5 - 0.0 - - 10 - - - -
31/11:00am 20.2 NW 6 8 1015.3 - 0.0 - - 10 - - - -
31/10:30am 18.4 N 6 8 1015.9 - 0.0 - - 10 - - - -
31/10:00am 17.6 NW 8 10 1016.5 - 0.0 - - 10 - - - -
31/09:30am 16.6 NW 9 10 1016.8 - 0.0 - - 10 - - - -
31/09:00am 15.1 NW 7 8 1017.2 F 0.0 Fine Clear 30 - - - -
31/08:30am 13.7 NW 7 8 1017.1 - 0.0 - - 10 - - - -
31/08:00am 11.2 NW 6 7 1017.3 - 0.0 - - 10 - - - -
31/07:30am 8.2 WNW 7 8 1017.3 - 0.0 - - 10 - - - -
31/07:00am 4.8 NW 6 6 1017.2 - 0.0 - - 10 - - - -
31/06:30am 4.8 CALM 0 0 1017.1 - 0.0 - - 10 - - - -
31/06:00am 4.9 CALM 0 0 1017.1 F 0.0 Fine Clear 25 - - - -
31/05:30am 4.8 N 1 4 1016.9 - 0.0 - - 10 - - - -
31/05:00am 4.7 N 5 6 1016.8 - 0.0 - - - - - - -
31/04:30am 4.7 WNW 3 4 1016.7 - 0.0 - - 10 - - - -
31/04:00am 6.0 W 5 6 1016.7 - 0.0 - - 10 - - - -
31/03:30am 5.4 WSW 4 5 1016.8 - 0.0 - - 10 - - - -
31/03:00am 6.1 CALM 0 0 1016.9 - 0.0 - - 10 - - - -
31/02:30am 6.3 CALM 0 0 1017.0 - 0.0 - - 10 - - - -
31/02:00am 6.6 CALM 0 0 1017.2 - 0.0 - - 10 - - - -
31/01:30am 7.3 WNW 1 4 1017.3 - 0.0 - - 10 - - - -
31/01:00am 7.6 NW 5 5 1017.6 - 0.0 - - 10 - - - -
31/12:30am 7.6 NW 5 5 1017.8 - 0.0 - - 10 - - - -
31/12:00am 8.4 W 4 5 1018.2 - 0.0 - - 10 - - - -
 
Date/Time
EST
Temp

°C
Wind Pressure Rain
since 9am
mm
Weather Cloud Vis
km
Sea
Height
m
Swell
Dir
 
Speed
knots
Gust
knots
hPa Trend Height
m
Period
s
Dir
30/11:30pm 9.5 W 4 5 1018.3 - 0.0 - - 10 - - - -
30/11:00pm 10.2 NW 4 5 1018.6 - 0.0 - - 10 - - - -
30/10:30pm 12.7 WNW 6 6 1018.5 - 0.0 - - 10 - - - -
30/10:00pm 12.9 WNW 7 8 1018.5 - 0.0 - - 10 - - - -
30/09:30pm 9.8 NW 4 5 1018.6 - 0.0 - - 10 - - - -
30/09:00pm 11.1 WNW 3 4 1018.8 - 0.0 - - 10 - - - -
30/08:30pm 13.5 W 7 7 1018.6 - 0.0 - - 10 - - - -
30/08:00pm 12.7 WNW 6 7 1018.3 - 0.0 - - 10 - - - -
30/07:30pm 12.3 CALM 0 0 1018.0 - 0.0 - - 10 - - - -
30/07:00pm 13.9 NNW 4 5 1017.7 - 0.0 - - 10 - - - -
30/06:30pm 17.1 N 7 9 1017.3 - 0.0 - - 10 - - - -
30/06:00pm 16.8 CALM 0 0 1017.2 - 0.0 - - 10 - - - -
30/05:30pm 17.9 WNW 9 12 1016.7 - 0.0 - - 10 - - - -
30/05:00pm 20.0 WNW 12 16 1016.3 - 0.0 - - 10 - - - -
30/04:30pm 21.3 WNW 15 20 1016.0 - 0.0 - - 10 - - - -
30/04:00pm 21.9 WNW 17 22 1015.9 - 0.0 - - 10 - - - -
30/03:30pm 22.3 WNW 21 29 1015.8 - 0.0 - - 10 - - - -
30/03:06pm 22.4 WNW 20 30 1015.9 - 0.0 - - 10 - - - -
30/03:00pm 22.6 WNW 22 29 1016.0 F 0.0 Fine Mostly clear 35 - - - -
30/02:37pm 22.2 WNW 21 31 1015.8 - 0.0 - - 10 - - - -
30/02:30pm 22.4 WNW 23 31 1015.9 - 0.0 - - 10 - - - -
30/02:00pm 22.2 WNW 24 31 1015.9 - 0.0 - - 10 - - - -
30/01:40pm 22.4 WNW 21 36 1016.1 - 0.0 - - 10 - - - -
30/01:30pm 22.3 WNW 19 26 1016.3 - 0.0 - - 10 - - - -
30/01:04pm 22.4 WNW 23 33 1016.7 - 0.0 - - 10 - - - -
30/01:00pm 22.1 WNW 25 33 1016.6 - 0.0 - - 10 - - - -
30/12:48pm 21.9 WNW 22 36 1016.5 - 0.0 - - 10 - - - -
30/12:30pm 21.8 NW 17 26 1017.1 - 0.0 - - 10 - - - -
30/12:00pm 21.5 NW 18 23 1017.9 F 0.0 Fine Mostly clear 35 - - - -
30/11:30am 21.0 WNW 15 21 1019.0 - 0.0 - - 10 - - - -
30/11:00am 20.2 WNW 15 20 1019.3 - 0.0 - - 10 - - - -
30/10:30am 19.6 W 17 24 1019.8 - 0.0 - - 10 - - - -
30/10:00am 18.9 WNW 16 21 1019.9 - 0.0 - - 10 - - - -
30/09:30am 17.9 W 16 23 1020.3 - 0.0 - - 10 - - - -
30/09:07am 17.3 W 16 26 1019.8 - 0.0 - - 10 - - - -
30/09:00am 17.2 W 16 22 1019.9 F 0.0 Fine Clear 30 - - - -
30/08:30am 15.6 NW 9 13 1020.0 - 0.0 - - 10 - - - -
30/08:00am 14.3 NNW 10 15 1019.8 - 0.0 - - 10 - - - -
30/07:30am 12.4 NW 13 15 1019.4 - 0.0 - - 10 - - - -
30/07:00am 11.6 NW 10 15 1019.2 - 0.0 - - 10 - - - -
30/06:30am 11.8 NNW 8 12 1018.9 - 0.0 - - 10 - - - -
30/06:00am 10.3 N 6 8 1018.8 F 0.0 Fine Clear 30 - - - -
30/05:30am 12.4 NNW 6 8 1018.3 - 0.0 - - 10 - - - -
30/05:00am 11.6 NNW 3 9 1018.2 - 0.0 - - 10 - - - -
30/04:30am 9.4 NNE 1 5 1018.1 - 0.0 - - 10 - - - -
30/04:00am 9.3 NE 5 7 1018.0 - 0.0 - - 10 - - - -
30/03:30am 9.9 N 5 6 1017.9 - 0.0 - - 10 - - - -
30/03:00am 10.1 NNW 1 6 1018.2 - 0.0 - - 10 - - - -
30/02:30am 11.4 NW 7 8 1018.0 - 0.0 - - 10 - - - -
30/02:00am 11.4 WNW 6 8 1017.9 - 0.0 - - 10 - - - -
30/01:30am 10.9 WNW 6 8 1018.0 - 0.0 - - 10 - - - -
30/01:00am 11.6 WNW 5 6 1018.0 - 0.0 - - 10 - - - -
30/12:30am 12.5 WNW 5 6 1018.0 - 0.0 - - 10 - - - -
30/12:00am 12.8 WNW 7 9 1018.1 - 0.0 - - 10 - - - -
 
Date/Time
EST
Temp

°C
Wind Pressure Rain
since 9am
mm
Weather Cloud Vis
km
Sea
Height
m
Swell
Dir
 
Speed
knots
Gust
knots
hPa Trend Height
m
Period
s
Dir
29/11:30pm 14.1 NW 6 8 1018.0 - 0.0 - - 10 - - - -
29/11:00pm 12.6 WSW 1 4 1018.3 - 0.0 - - 10 - - - -
29/10:30pm 14.4 NNW 7 9 1018.2 - 0.0 - - 10 - - - -
29/10:00pm 15.5 NW 10 14 1018.1 - 0.0 - - 10 - - - -
29/09:30pm 15.6 NW 11 14 1018.1 - 0.0 - - 10 - - - -
29/09:00pm 15.7 NNW 11 14 1018.3 - 0.0 - - 10 - - - -
29/08:30pm 16.7 NNW 13 17 1018.2 - 0.0 - - 10 - - - -
29/08:00pm 16.7 NNW 10 14 1018.1 - 0.0 - - 10 - - - -
29/07:30pm 17.0 NNW 9 14 1018.0 - 0.0 - - 10 - - - -
29/07:00pm 16.3 NNW 8 12 1018.1 - 0.0 - - 10 - - - -
29/06:30pm 16.3 NNW 7 9 1017.8 - 0.0 - - 10 - - - -
29/06:00pm 16.0 NNW 8 10 1017.7 - 0.0 - - 10 - - - -
29/05:30pm 16.5 NNW 8 11 1017.3 - 0.0 - - 10 - - - -
29/05:00pm 18.0 NNW 8 12 1017.0 - 0.0 - - 10 - - - -
29/04:30pm 19.4 NNW 9 14 1016.7 - 0.0 - - 10 - - - -
29/04:00pm 20.1 NNW 12 18 1016.2 - 0.0 - - 10 - - - -
29/03:30pm 20.3 NW 15 21 1016.3 - 0.0 - - 10 - - - -
29/03:00pm 20.6 WNW 15 19 1016.5 F 0.0 Fine Mostly cloudy 40 - - - -
29/02:30pm 20.9 WNW 16 20 1016.7 - 0.0 - - 10 - - - -
29/02:00pm 20.6 WNW 16 22 1016.9 - 0.0 - - 10 - - - -
29/01:40pm 20.9 WNW 15 26 1016.4 - 0.0 - - 10 - - - -
29/01:30pm 21.2 WNW 16 23 1016.6 - 0.0 - - 10 - - - -
29/01:01pm 21.9 WNW 18 28 1016.9 - 0.0 - - 10 - - - -
29/01:00pm 21.8 WNW 19 28 1017.0 - 0.0 - - 10 - - - -
29/12:49pm 20.5 NW 19 29 1017.1 - 0.0 - - 10 - - - -
29/12:30pm 20.9 NW 20 29 1017.5 - 0.0 - - 10 - - - -
29/12:00pm 19.5 NW 22 29 1018.6 F 0.0 Fine Mostly cloudy 40 - - - -
29/11:30am 19.4 WNW 21 28 1019.4 - 0.0 - - 10 - - - -
29/11:00am 18.6 WNW 18 25 1020.1 - 0.0 - - 10 - - - -
29/10:30am 18.2 WNW 16 22 1020.2 - 0.0 - - 10 - - - -
29/10:00am 16.6 NW 15 19 1020.3 - 0.0 - - 10 - - - -

Other Formats:

Comma delimited format used in spreadsheet applications
http://www.bom.gov.au/fwo/IDN60701/IDN60701.94776.axf

JavaScript Object Notation format (JSON) in row-major order
http://www.bom.gov.au/fwo/IDN60701/IDN60701.94776.json